Time;durP1;ratioP1;P1;durP2;ratioP2;P2;SDS_P1;SDS_P2;PMS_P1;PMS_P2;Temp;Humidity;BMP_temperature;BMP_pressure;BME280_temperature;BME280_humidity;BME280_pressure;Samples;Min_cycle;Max_cycle;Signal;HPM_P1;HPM_P2
2021/08/01 00:02:25;;;;;;;;;;;;;;;11.64;89.41;99676.53;5113443;28;19924;-74
2021/08/01 00:04:52;;;;;;;;;;;;;;;11.55;89.95;99676.25;5072113;28;19924;-74
2021/08/01 00:07:18;;;;;;;;;;;;;;;11.52;90.20;99679.09;5072248;28;19925;-74
2021/08/01 00:09:45;;;;;;;;;;;;;;;11.52;89.59;99671.28;5072056;28;20295;-74
2021/08/01 00:12:12;;;;;;;;;;;;;;;11.46;90.16;99674.38;5072556;28;19931;-74
2021/08/01 00:14:38;;;;;;;;;;;;;;;11.47;90.32;99676.03;5072629;28;20386;-74
2021/08/01 00:17:05;;;;;;;;;;;;;;;11.43;90.71;99671.16;5072291;28;19924;-74
2021/08/01 00:19:33;;;;;;;;;;;;;;;11.45;90.62;99674.47;5072155;28;19925;-74
2021/08/01 00:22:00;;;;;;;;;;;;;;;11.51;90.61;99671.44;5071903;28;20374;-74
2021/08/01 00:24:26;;;;;;;;;;;;;;;11.57;89.97;99672.72;5072439;28;19928;-74
2021/08/01 00:26:53;;;;;;;;;;;;;;;11.54;90.22;99672.00;5072244;28;19931;-74
2021/08/01 00:29:19;;;;;;;;;;;;;;;11.55;89.94;99665.00;5072091;28;19925;-74
2021/08/01 00:31:46;;;;;;;;;;;;;;;11.54;89.77;99664.19;5072122;28;19948;-74
2021/08/01 00:34:13;;;;;;;;;;;;;;;11.58;90.44;99656.97;5072381;28;19924;-74
2021/08/01 00:36:41;;;;;;;;;;;;;;;11.53;90.34;99657.34;5072087;28;19924;-74
2021/08/01 00:39:09;;;;;;;;;;;;;;;11.53;90.14;99657.34;5071845;28;19928;-74
2021/08/01 00:41:35;;;;;;;;;;;;;;;11.47;90.49;99665.59;5075454;28;19928;-74
2021/08/01 00:44:02;;;;;;;;;;;;;;;11.47;90.82;99663.00;5075861;28;19936;-74
2021/08/01 00:46:29;;;;;;;;;;;;;;;11.48;90.92;99664.69;5076000;28;19925;-74
2021/08/01 00:48:55;;;;;;;;;;;;;;;11.41;90.79;99660.88;5075497;28;19932;-75
2021/08/01 00:51:22;;;;;;;;;;;;;;;11.39;90.48;99660.16;5075936;28;19925;-75
2021/08/01 00:53:50;;;;;;;;;;;;;;;11.36;90.45;99664.78;5075660;28;19924;-75
2021/08/01 00:56:17;;;;;;;;;;;;;;;11.31;90.44;99665.94;5075789;28;19935;-75
2021/08/01 00:58:43;;;;;;;;;;;;;;;11.34;90.50;99668.31;5075344;28;20400;-75
2021/08/01 01:01:15;;;;;;;;;;;;;;;11.30;91.33;99671.25;5075845;28;19924;-75
2021/08/01 01:03:46;;;;;;;;;;;;;;;11.34;90.59;99673.50;5096993;28;19955;-75
2021/08/01 01:06:17;;;;;;;;;;;;;;;11.33;90.82;99671.03;5116364;28;19924;-75
2021/08/01 01:08:48;;;;;;;;;;;;;;;11.28;90.63;99673.16;5116057;28;19924;-76
2021/08/01 01:11:19;;;;;;;;;;;;;;;11.30;90.75;99669.50;5116429;27;20073;-75
2021/08/01 01:13:47;;;;;;;;;;;;;;;11.40;90.76;99674.81;5115843;28;20404;-75
2021/08/01 01:16:13;;;;;;;;;;;;;;;11.48;90.67;99663.81;5115767;28;19923;-75
2021/08/01 01:18:42;;;;;;;;;;;;;;;11.51;90.52;99664.44;5116165;28;19923;-75
2021/08/01 01:21:26;;;;;;;;;;;;;;;11.59;90.52;99653.44;5116128;28;19924;-75
2021/08/01 01:23:54;;;;;;;;;;;;;;;11.65;90.10;99657.34;5115572;28;20301;-75
2021/08/01 01:26:27;;;;;;;;;;;;;;;11.68;90.89;99654.50;5115619;28;19924;-75
2021/08/01 01:28:57;;;;;;;;;;;;;;;11.73;90.09;99650.56;5115390;28;20384;-75
2021/08/01 01:31:30;;;;;;;;;;;;;;;11.77;90.08;99646.78;5115535;28;19931;-75
2021/08/01 01:34:10;;;;;;;;;;;;;;;11.81;90.72;99647.38;5115707;28;19977;-75
2021/08/01 01:36:40;;;;;;;;;;;;;;;11.73;89.94;99641.94;5115848;28;19924;-75
2021/08/01 01:39:07;;;;;;;;;;;;;;;11.66;89.80;99643.34;5115218;28;20267;-75
2021/08/01 01:41:34;;;;;;;;;;;;;;;11.57;90.04;99642.28;5115670;28;19931;-76
2021/08/01 01:44:01;;;;;;;;;;;;;;;11.59;89.79;99636.97;5115347;28;19924;-77
2021/08/01 01:46:28;;;;;;;;;;;;;;;11.69;90.62;99632.72;5115552;27;19928;-75
2021/08/01 01:48:56;;;;;;;;;;;;;;;11.75;89.50;99635.66;5115239;28;19977;-75
2021/08/01 01:51:23;;;;;;;;;;;;;;;12.00;90.03;99641.59;5115181;28;19923;-74
2021/08/01 01:53:51;;;;;;;;;;;;;;;11.98;90.19;99640.88;5114860;28;20275;-74
2021/08/01 01:56:18;;;;;;;;;;;;;;;12.16;90.12;99633.41;5115275;28;20581;-74
2021/08/01 01:58:45;;;;;;;;;;;;;;;12.03;90.62;99636.16;5115155;28;19924;-74
2021/08/01 02:01:11;;;;;;;;;;;;;;;12.08;90.73;99625.34;5115343;28;19924;-74
2021/08/01 02:03:38;;;;;;;;;;;;;;;11.94;91.14;99632.47;5114917;28;19927;-74
2021/08/01 02:06:05;;;;;;;;;;;;;;;11.96;91.12;99642.78;5114581;28;20390;-74
2021/08/01 02:08:34;;;;;;;;;;;;;;;11.95;91.15;99641.97;5114890;28;20378;-74
2021/08/01 02:11:06;;;;;;;;;;;;;;;11.93;91.61;99645.63;5114867;28;19990;-74
2021/08/01 02:13:37;;;;;;;;;;;;;;;11.97;91.11;99637.47;5114726;28;19931;-75
2021/08/01 02:16:04;;;;;;;;;;;;;;;11.98;91.49;99639.09;5114519;28;20404;-74
2021/08/01 02:18:35;;;;;;;;;;;;;;;12.13;91.09;99634.47;5114983;28;19924;-74
2021/08/01 02:21:03;;;;;;;;;;;;;;;12.22;90.70;99630.28;5114672;28;20366;-74
2021/08/01 02:23:32;;;;;;;;;;;;;;;12.37;90.15;99629.06;5114544;28;19924;-74
2021/08/01 02:25:59;;;;;;;;;;;;;;;12.39;90.52;99621.94;5114230;28;20366;-74
2021/08/01 02:28:29;;;;;;;;;;;;;;;12.66;89.77;99625.88;5114619;28;19931;-74
2021/08/01 02:30:56;;;;;;;;;;;;;;;12.86;88.48;99622.47;5114520;28;19930;-74
2021/08/01 02:33:27;;;;;;;;;;;;;;;12.84;88.60;99621.78;5114379;28;20390;-74
2021/08/01 02:35:55;;;;;;;;;;;;;;;12.70;89.24;99616.03;5114403;28;19924;-74
2021/08/01 02:38:22;;;;;;;;;;;;;;;12.69;89.35;99616.97;5114611;28;19924;-75
2021/08/01 02:40:51;;;;;;;;;;;;;;;12.64;89.53;99617.38;5114051;28;19957;-74
2021/08/01 02:43:18;;;;;;;;;;;;;;;12.92;88.11;99612.47;5114402;28;19924;-74
2021/08/01 02:45:47;;;;;;;;;;;;;;;13.00;88.14;99618.72;5113803;28;20375;-74
2021/08/01 02:48:15;;;;;;;;;;;;;;;13.15;87.71;99627.03;5114321;28;19924;-74
2021/08/01 02:50:43;;;;;;;;;;;;;;;13.21;87.86;99618.72;5114224;28;19924;-74
2021/08/01 02:53:11;;;;;;;;;;;;;;;13.09;88.34;99611.91;5114007;28;19923;-74
2021/08/01 02:55:39;;;;;;;;;;;;;;;13.25;87.72;99620.09;5113975;28;20394;-74
2021/08/01 02:58:06;;;;;;;;;;;;;;;13.11;89.20;99630.06;5113681;28;19931;-74
2021/08/01 03:00:34;;;;;;;;;;;;;;;12.93;89.81;99619.34;5114085;28;19924;-74
2021/08/01 03:03:05;;;;;;;;;;;;;;;12.83;89.98;99612.28;5112765;28;19931;-74
2021/08/01 03:05:32;;;;;;;;;;;;;;;12.85;90.34;99620.00;5113754;28;19924;-74
2021/08/01 03:07:59;;;;;;;;;;;;;;;13.13;89.88;99615.91;5113503;28;19935;-74
2021/08/01 03:10:25;;;;;;;;;;;;;;;13.15;89.55;99616.59;5114007;28;19924;-74
2021/08/01 03:12:52;;;;;;;;;;;;;;;13.15;89.26;99613.16;5113309;27;19924;-75
2021/08/01 03:15:19;;;;;;;;;;;;;;;13.17;89.30;99612.06;5113839;28;19927;-74
2021/08/01 03:17:45;;;;;;;;;;;;;;;13.15;89.12;99619.19;5113317;28;20293;-74
2021/08/01 03:20:13;;;;;;;;;;;;;;;13.13;89.59;99618.53;5113526;28;19924;-74
2021/08/01 03:22:40;;;;;;;;;;;;;;;13.17;89.63;99611.25;5113374;28;19923;-74
2021/08/01 03:25:07;;;;;;;;;;;;;;;13.06;90.21;99612.97;5113060;28;19924;-74
2021/08/01 03:27:33;;;;;;;;;;;;;;;13.09;90.04;99617.13;5113354;28;19931;-74
2021/08/01 03:30:00;;;;;;;;;;;;;;;13.03;90.93;99605.41;5113113;28;19931;-74
2021/08/01 03:32:26;;;;;;;;;;;;;;;13.17;90.48;99612.06;5113580;28;19924;-74
2021/08/01 03:34:53;;;;;;;;;;;;;;;13.16;90.47;99607.81;5113047;28;19931;-74
2021/08/01 03:37:25;;;;;;;;;;;;;;;13.22;90.50;99612.50;5113085;28;19924;-74
2021/08/01 03:39:51;;;;;;;;;;;;;;;13.26;89.95;99613.97;5113121;28;19930;-74
2021/08/01 03:42:18;;;;;;;;;;;;;;;13.43;89.77;99602.06;5113184;28;19924;-74
2021/08/01 03:44:44;;;;;;;;;;;;;;;13.57;89.49;99610.53;5112903;28;20301;-74
2021/08/01 03:47:11;;;;;;;;;;;;;;;13.80;88.59;99606.75;5113183;28;19924;-74
2021/08/01 03:49:38;;;;;;;;;;;;;;;13.75;88.50;99608.94;5113305;28;19924;-74
2021/08/01 03:52:05;;;;;;;;;;;;;;;13.87;88.08;99614.88;5113023;28;20204;-74
2021/08/01 03:54:33;;;;;;;;;;;;;;;13.97;87.70;99602.66;5113289;28;20289;-74
2021/08/01 03:57:00;;;;;;;;;;;;;;;13.92;88.53;99613.53;5112818;28;20393;-74
2021/08/01 03:59:26;;;;;;;;;;;;;;;13.99;88.79;99610.38;5113317;28;19931;-74
2021/08/01 04:01:53;;;;;;;;;;;;;;;13.97;87.31;99609.69;5112711;28;19931;-74
2021/08/01 04:04:19;;;;;;;;;;;;;;;14.07;87.24;99605.31;5112697;28;20277;-74
2021/08/01 04:06:46;;;;;;;;;;;;;;;14.19;86.95;99612.06;5112737;28;19931;-74
2021/08/01 04:09:12;;;;;;;;;;;;;;;14.11;88.08;99609.31;5112885;28;19924;-74
2021/08/01 04:11:43;;;;;;;;;;;;;;;14.15;86.80;99606.31;5112862;28;20294;-74
2021/08/01 04:14:10;;;;;;;;;;;;;;;14.27;85.74;99616.63;5112911;28;19923;-74
2021/08/01 04:16:37;;;;;;;;;;;;;;;14.27;86.70;99617.44;5116428;28;19924;-74
2021/08/01 04:19:07;;;;;;;;;;;;;;;14.26;87.12;99620.22;5117035;28;20419;-74
2021/08/01 04:21:33;;;;;;;;;;;;;;;14.51;84.97;99624.91;5116991;28;19931;-74
2021/08/01 04:24:00;;;;;;;;;;;;;;;14.70;84.36;99623.31;5117005;28;19930;-74
2021/08/01 04:26:27;;;;;;;;;;;;;;;14.75;84.14;99624.53;5117063;28;19923;-74
2021/08/01 04:28:55;;;;;;;;;;;;;;;15.01;83.81;99621.34;5116922;28;19924;-74
2021/08/01 04:31:21;;;;;;;;;;;;;;;15.15;82.33;99617.44;5116989;28;19924;-74
2021/08/01 04:33:48;;;;;;;;;;;;;;;15.27;82.17;99618.94;5116547;28;19923;-74
2021/08/01 04:36:14;;;;;;;;;;;;;;;15.36;82.21;99615.47;5116733;28;20378;-74
2021/08/01 04:38:41;;;;;;;;;;;;;;;15.48;81.30;99612.66;5116890;28;19947;-74
2021/08/01 04:41:07;;;;;;;;;;;;;;;15.57;80.84;99611.81;5116656;28;19924;-74
2021/08/01 04:43:34;;;;;;;;;;;;;;;15.67;80.03;99617.84;5116581;28;19924;-74
2021/08/01 04:46:02;;;;;;;;;;;;;;;15.68;79.85;99611.63;5116157;28;20501;-74
2021/08/01 04:48:29;;;;;;;;;;;;;;;15.69;78.61;99613.28;5116801;28;19924;-74
2021/08/01 04:50:55;;;;;;;;;;;;;;;15.67;79.22;99617.84;5116382;28;19924;-74
2021/08/01 04:53:22;;;;;;;;;;;;;;;15.66;79.86;99609.13;5116307;28;19924;-74
2021/08/01 04:55:49;;;;;;;;;;;;;;;15.67;80.34;99610.81;5116336;28;19923;-74
2021/08/01 04:58:15;;;;;;;;;;;;;;;15.55;79.95;99608.50;5116279;28;19923;-74
2021/08/01 05:00:42;;;;;;;;;;;;;;;15.58;79.52;99606.41;5116284;28;19931;-74
2021/08/01 05:03:10;;;;;;;;;;;;;;;15.65;80.68;99604.06;5115863;28;19930;-74
2021/08/01 05:05:37;;;;;;;;;;;;;;;15.57;80.28;99599.53;5116084;28;20374;-74
2021/08/01 05:08:04;;;;;;;;;;;;;;;15.68;81.39;99611.63;5116000;28;19928;-74
2021/08/01 05:10:31;;;;;;;;;;;;;;;15.89;80.69;99606.16;5116311;28;19924;-74
2021/08/01 05:12:57;;;;;;;;;;;;;;;16.17;80.67;99606.16;5115735;28;19924;-74
2021/08/01 05:15:24;;;;;;;;;;;;;;;16.40;77.16;99606.53;5116236;28;19924;-74
2021/08/01 05:17:51;;;;;;;;;;;;;;;16.39;77.44;99605.72;5115699;28;20310;-74
2021/08/01 05:20:19;;;;;;;;;;;;;;;16.43;76.71;99606.22;5116021;27;20028;-74
2021/08/01 05:22:46;;;;;;;;;;;;;;;16.50;77.34;99609.91;5115924;28;19992;-74
2021/08/01 05:25:12;;;;;;;;;;;;;;;16.50;77.33;99602.84;5115779;28;19924;-74
2021/08/01 05:27:39;;;;;;;;;;;;;;;16.78;76.22;99599.34;5115022;28;20413;-74
2021/08/01 05:30:06;;;;;;;;;;;;;;;16.88;76.50;99600.09;5115746;28;19928;-74
2021/08/01 05:32:32;;;;;;;;;;;;;;;16.82;75.79;99600.69;5115659;28;20374;-74
2021/08/01 05:34:59;;;;;;;;;;;;;;;16.93;75.36;99600.47;5115363;28;20302;-74
2021/08/01 05:37:27;;;;;;;;;;;;;;;16.98;75.64;99603.44;5115721;28;19931;-73
2021/08/01 05:39:54;;;;;;;;;;;;;;;16.94;75.67;99600.28;5115796;28;20294;-74
2021/08/01 05:42:20;;;;;;;;;;;;;;;16.93;75.27;99598.66;5115434;28;19928;-74
2021/08/01 05:44:47;;;;;;;;;;;;;;;16.79;75.37;99595.75;5115091;28;19931;-74
2021/08/01 05:47:13;;;;;;;;;;;;;;;16.80;75.42;99598.22;5115489;28;20028;-74
2021/08/01 05:49:40;;;;;;;;;;;;;;;16.72;75.18;99591.06;5115519;28;19923;-74
2021/08/01 05:52:06;;;;;;;;;;;;;;;16.74;74.57;99593.53;5114937;28;19924;-74
2021/08/01 05:54:34;;;;;;;;;;;;;;;16.62;76.08;99595.59;5115490;28;19930;-74
2021/08/01 05:57:01;;;;;;;;;;;;;;;16.62;77.26;99592.97;5114791;28;20378;-74
2021/08/01 05:59:28;;;;;;;;;;;;;;;16.75;74.64;99596.00;5115422;28;19953;-74
2021/08/01 06:01:54;;;;;;;;;;;;;;;16.76;75.58;99597.66;5115020;28;19931;-74
2021/08/01 06:04:21;;;;;;;;;;;;;;;16.83;74.25;99594.47;5114694;28;19928;-74
2021/08/01 06:06:47;;;;;;;;;;;;;;;16.79;72.46;99588.69;5114550;28;19930;-74
2021/08/01 06:09:14;;;;;;;;;;;;;;;16.90;73.42;99592.84;5115023;28;19931;-74
2021/08/01 06:11:42;;;;;;;;;;;;;;;17.05;72.43;99590.50;5115017;28;19946;-74
2021/08/01 06:14:08;;;;;;;;;;;;;;;17.09;72.98;99589.22;5115033;28;19961;-74
2021/08/01 06:16:35;;;;;;;;;;;;;;;16.94;72.79;99592.41;5114657;28;19924;-74
2021/08/01 06:19:01;;;;;;;;;;;;;;;17.13;73.00;99587.91;5114258;28;19944;-74
2021/08/01 06:21:29;;;;;;;;;;;;;;;17.30;70.64;99592.31;5114461;28;19924;-74
2021/08/01 06:23:56;;;;;;;;;;;;;;;17.48;69.36;99594.03;5114676;28;19927;-74
2021/08/01 06:26:23;;;;;;;;;;;;;;;17.65;70.18;99587.88;5114629;28;19923;-74
2021/08/01 06:28:51;;;;;;;;;;;;;;;17.72;69.81;99586.25;5114178;28;19931;-74
2021/08/01 06:31:18;;;;;;;;;;;;;;;17.88;69.00;99592.56;5114247;28;19924;-74
2021/08/01 06:33:44;;;;;;;;;;;;;;;18.13;69.42;99590.84;5114022;28;20290;-74
2021/08/01 06:36:12;;;;;;;;;;;;;;;18.24;69.32;99590.53;5114167;28;20022;-74
2021/08/01 06:38:39;;;;;;;;;;;;;;;18.40;68.33;99595.00;5113411;28;19924;-74
2021/08/01 06:41:06;;;;;;;;;;;;;;;18.52;68.70;99590.22;5114218;28;19924;-74
2021/08/01 06:43:33;;;;;;;;;;;;;;;18.56;69.23;99588.91;5114478;28;19923;-74
2021/08/01 06:46:01;;;;;;;;;;;;;;;18.64;66.82;99579.19;5113583;28;19924;-74
2021/08/01 06:48:28;;;;;;;;;;;;;;;18.65;67.73;99591.41;5114378;28;19924;-74
2021/08/01 06:50:55;;;;;;;;;;;;;;;18.87;66.27;99587.28;5113816;28;19931;-74
2021/08/01 06:53:21;;;;;;;;;;;;;;;18.96;65.72;99590.75;5113928;28;19928;-74
2021/08/01 06:55:48;;;;;;;;;;;;;;;19.25;65.05;99592.84;5113747;28;19923;-74
2021/08/01 06:58:17;;;;;;;;;;;;;;;19.62;62.90;99586.09;5113676;28;20290;-74
2021/08/01 07:00:45;;;;;;;;;;;;;;;19.39;63.16;99574.66;5113667;28;19924;-74
2021/08/01 07:03:13;;;;;;;;;;;;;;;19.46;63.07;99571.16;5113571;28;19927;-74
2021/08/01 07:05:39;;;;;;;;;;;;;;;19.41;62.18;99575.31;5113979;28;19924;-74
2021/08/01 07:08:06;;;;;;;;;;;;;;;19.14;64.40;99577.38;5113344;28;20366;-74
2021/08/01 07:10:33;;;;;;;;;;;;;;;19.09;64.15;99579.69;5113738;28;19924;-74
2021/08/01 07:13:02;;;;;;;;;;;;;;;19.36;62.54;99571.38;5113300;28;19924;-74
2021/08/01 07:15:28;;;;;;;;;;;;;;;19.36;63.07;99578.47;5113932;28;19931;-74
2021/08/01 07:17:55;;;;;;;;;;;;;;;19.68;61.79;99579.34;5113217;28;20397;-74
2021/08/01 07:20:24;;;;;;;;;;;;;;;20.57;60.75;99590.41;5113524;28;20377;-74
2021/08/01 07:22:50;;;;;;;;;;;;;;;20.79;58.13;99586.09;5113236;28;20407;-74
2021/08/01 07:25:17;;;;;;;;;;;;;;;21.98;56.59;99581.63;5113724;28;19924;-74
2021/08/01 07:27:44;;;;;;;;;;;;;;;21.96;54.83;99570.38;5112991;28;19923;-74
2021/08/01 07:30:11;;;;;;;;;;;;;;;22.48;52.59;99569.34;5113660;28;19923;-74
2021/08/01 07:32:37;;;;;;;;;;;;;;;22.98;50.74;99569.34;5113561;28;19923;-72
2021/08/01 07:35:04;;;;;;;;;;;;;;;23.04;51.68;99574.69;5113045;28;19927;-71
2021/08/01 07:37:32;;;;;;;;;;;;;;;23.34;50.76;99573.63;5113214;28;20331;-72
2021/08/01 07:39:59;;;;;;;;;;;;;;;23.72;48.66;99578.50;5112929;28;20440;-72
2021/08/01 07:42:26;;;;;;;;;;;;;;;24.29;48.77;99566.63;5113190;28;20286;-72
2021/08/01 07:44:54;;;;;;;;;;;;;;;24.25;46.90;99565.38;5113208;28;19924;-72
2021/08/01 07:47:21;;;;;;;;;;;;;;;24.64;45.85;99569.97;5113215;28;19967;-72
2021/08/01 07:49:49;;;;;;;;;;;;;;;23.96;47.71;99572.69;5112924;28;19924;-72
2021/08/01 07:52:16;;;;;;;;;;;;;;;25.04;46.19;99571.75;5113065;28;19924;-73
2021/08/01 07:54:44;;;;;;;;;;;;;;;24.28;48.15;99565.81;5113031;28;19924;-72
2021/08/01 07:57:21;;;;;;;;;;;;;;;25.18;46.42;99573.41;5113122;28;19924;-72
2021/08/01 07:59:48;;;;;;;;;;;;;;;24.42;45.76;99565.81;5113039;28;19924;-72
2021/08/01 08:02:14;;;;;;;;;;;;;;;25.18;43.15;99563.59;5113199;28;19923;-72
2021/08/01 08:04:41;;;;;;;;;;;;;;;24.98;44.26;99568.09;5112766;28;19924;-72
2021/08/01 08:07:07;;;;;;;;;;;;;;;24.64;43.60;99572.63;5112442;28;20321;-72
2021/08/01 08:09:34;;;;;;;;;;;;;;;25.78;42.84;99557.22;5113132;28;19931;-72
2021/08/01 08:12:02;;;;;;;;;;;;;;;26.01;42.06;99559.38;5112937;28;19924;-74
2021/08/01 08:14:28;;;;;;;;;;;;;;;25.89;41.93;99559.22;5112580;28;19931;-74
2021/08/01 08:16:55;;;;;;;;;;;;;;;26.29;41.44;99554.47;5112401;28;19924;-70
2021/08/01 08:19:22;;;;;;;;;;;;;;;25.75;42.23;99557.66;5112696;28;19928;-74
2021/08/01 08:21:48;;;;;;;;;;;;;;;26.12;40.44;99555.22;5112859;28;19923;-73
2021/08/01 08:24:15;;;;;;;;;;;;;;;26.01;40.85;99548.72;5113072;28;19924;-73
2021/08/01 08:26:42;;;;;;;;;;;;;;;25.76;41.63;99541.44;5112653;28;19932;-73
2021/08/01 08:29:10;;;;;;;;;;;;;;;25.89;41.87;99543.25;5112698;28;19923;-73
2021/08/01 08:31:36;;;;;;;;;;;;;;;24.67;45.18;99539.50;5112995;28;19931;-73
2021/08/01 08:34:03;;;;;;;;;;;;;;;23.17;49.03;99546.59;5112478;28;19930;-73
2021/08/01 08:36:29;;;;;;;;;;;;;;;22.63;50.96;99539.25;5112955;28;19924;-73
2021/08/01 08:38:56;;;;;;;;;;;;;;;23.22;49.57;99539.69;5112724;28;19924;-73
2021/08/01 08:41:23;;;;;;;;;;;;;;;25.51;43.63;99538.72;5112531;28;19924;-73
2021/08/01 08:43:50;;;;;;;;;;;;;;;25.61;41.99;99530.25;5112285;28;19924;-73
2021/08/01 08:46:19;;;;;;;;;;;;;;;26.41;40.25;99530.59;5112864;28;19927;-74
2021/08/01 08:48:45;;;;;;;;;;;;;;;25.28;43.76;99535.69;5112138;28;20293;-73
2021/08/01 08:51:12;;;;;;;;;;;;;;;24.27;45.60;99529.63;5112771;28;19928;-74
2021/08/01 08:53:41;;;;;;;;;;;;;;;23.64;46.58;99526.41;5112411;28;19924;-73
2021/08/01 08:56:09;;;;;;;;;;;;;;;23.20;48.02;99525.00;5112228;28;19930;-74
2021/08/01 08:58:36;;;;;;;;;;;;;;;22.77;50.78;99527.75;5112780;28;19931;-75
2021/08/01 09:01:04;;;;;;;;;;;;;;;22.26;53.03;99527.94;5112643;28;19928;-74
2021/08/01 09:03:33;;;;;;;;;;;;;;;24.29;45.99;99524.91;5115939;28;19923;-72
2021/08/01 09:06:00;;;;;;;;;;;;;;;24.15;47.56;99528.59;5116256;28;19931;-72
2021/08/01 09:08:26;;;;;;;;;;;;;;;25.54;43.15;99522.31;5115971;28;19931;-72
2021/08/01 09:10:53;;;;;;;;;;;;;;;26.00;42.27;99521.25;5115802;28;20374;-71
2021/08/01 09:13:38;;;;;;;;;;;;;;;24.55;46.04;99516.16;5116330;27;19923;-71
2021/08/01 09:16:05;;;;;;;;;;;;;;;23.80;47.64;99514.63;5115717;28;19931;-71
2021/08/01 09:18:34;;;;;;;;;;;;;;;22.83;50.10;99511.06;5116109;28;20026;-72
2021/08/01 09:21:00;;;;;;;;;;;;;;;22.45;51.01;99515.88;5115946;28;19924;-72
2021/08/01 09:23:27;;;;;;;;;;;;;;;22.08;53.37;99507.16;5115675;28;19924;-71
2021/08/01 09:25:57;;;;;;;;;;;;;;;22.91;51.55;99502.13;5115836;28;19947;-71
2021/08/01 09:28:25;;;;;;;;;;;;;;;23.21;50.67;99495.59;5116024;28;19924;-71
2021/08/01 09:30:52;;;;;;;;;;;;;;;24.22;48.11;99496.69;5115584;28;20006;-71
2021/08/01 09:33:32;;;;;;;;;;;;;;;25.66;44.20;99498.47;5115612;28;19924;-71
2021/08/01 09:36:10;;;;;;;;;;;;;;;25.35;45.18;99492.06;5115695;28;19924;-71
2021/08/01 09:38:43;;;;;;;;;;;;;;;24.80;44.76;99493.44;5115498;28;19923;-71
2021/08/01 09:41:10;;;;;;;;;;;;;;;23.97;46.83;99493.81;5115662;28;19981;-71
2021/08/01 09:43:43;;;;;;;;;;;;;;;27.24;41.03;99493.94;5115354;28;20309;-72
2021/08/01 09:46:10;;;;;;;;;;;;;;;26.39;40.51;99492.66;5115400;28;20416;-72
2021/08/01 09:48:36;;;;;;;;;;;;;;;27.76;37.63;99497.75;5115609;28;19924;-72
2021/08/01 09:51:04;;;;;;;;;;;;;;;27.66;36.93;99489.47;5115135;28;20277;-72
2021/08/01 09:53:33;;;;;;;;;;;;;;;28.52;35.79;99494.59;5115121;28;20345;-71
2021/08/01 09:56:16;;;;;;;;;;;;;;;27.67;36.74;99496.44;5115292;28;19930;-72
2021/08/01 09:58:43;;;;;;;;;;;;;;;25.85;40.20;99492.25;5115194;28;20294;-71
2021/08/01 10:01:10;;;;;;;;;;;;;;;25.68;41.04;99491.06;5114974;28;19924;-72
2021/08/01 10:03:37;;;;;;;;;;;;;;;25.67;42.76;99484.13;5114721;28;19924;-71
2021/08/01 10:06:11;;;;;;;;;;;;;;;25.48;40.77;99483.19;5115014;28;19935;-71
2021/08/01 10:08:39;;;;;;;;;;;;;;;24.73;43.54;99482.81;5114872;28;20374;-71
2021/08/01 10:11:16;;;;;;;;;;;;;;;24.70;43.45;99480.56;5114841;28;20030;-72
2021/08/01 10:13:43;;;;;;;;;;;;;;;27.36;41.45;99484.13;5115086;28;19928;-72
2021/08/01 10:16:11;;;;;;;;;;;;;;;28.31;37.51;99485.22;5114649;28;19924;-72
2021/08/01 10:18:38;;;;;;;;;;;;;;;26.41;38.98;99473.78;5115011;28;19924;-71
2021/08/01 10:21:05;;;;;;;;;;;;;;;25.80;41.59;99473.41;5114571;28;19924;-73
2021/08/01 10:23:34;;;;;;;;;;;;;;;25.57;42.19;99473.94;5114951;28;19980;-75
2021/08/01 10:26:04;;;;;;;;;;;;;;;28.14;38.18;99474.41;5114603;28;19931;-74
2021/08/01 10:28:32;;;;;;;;;;;;;;;28.82;37.60;99468.50;5114502;28;19930;-75
2021/08/01 10:31:01;;;;;;;;;;;;;;;31.62;32.29;99464.38;5114191;28;19931;-76
2021/08/01 10:33:32;;;;;;;;;;;;;;;29.72;33.41;99463.59;5114458;28;20385;-75
2021/08/01 10:36:01;;;;;;;;;;;;;;;31.39;29.46;99468.19;5114598;28;19945;-75
2021/08/01 10:38:31;;;;;;;;;;;;;;;28.22;35.27;99464.16;5114324;28;20297;-72
2021/08/01 10:40:59;;;;;;;;;;;;;;;28.09;37.85;99461.72;5114292;28;19931;-73
2021/08/01 10:43:29;;;;;;;;;;;;;;;26.83;38.02;99466.84;5114274;28;19923;-74
2021/08/01 10:45:56;;;;;;;;;;;;;;;26.50;37.64;99453.81;5114144;28;20022;-74
2021/08/01 10:48:23;;;;;;;;;;;;;;;28.54;36.46;99457.69;5114122;28;19924;-74
2021/08/01 10:50:51;;;;;;;;;;;;;;;31.23;32.07;99449.19;5113752;28;20294;-75
2021/08/01 10:53:24;;;;;;;;;;;;;;;31.72;30.31;99456.41;5114077;28;19924;-75
2021/08/01 10:55:51;;;;;;;;;;;;;;;28.71;33.95;99463.16;5113609;28;19977;-71
2021/08/01 10:58:18;;;;;;;;;;;;;;;27.61;35.14;99462.59;5113988;28;19924;-71
2021/08/01 11:01:02;;;;;;;;;;;;;;;26.84;36.24;99459.63;5113971;28;20057;-71
2021/08/01 11:03:29;;;;;;;;;;;;;;;27.08;38.91;99458.75;5113887;28;19924;-71
2021/08/01 11:05:56;;;;;;;;;;;;;;;26.97;37.78;99459.47;5113746;28;19947;-72
2021/08/01 11:08:23;;;;;;;;;;;;;;;27.47;37.06;99459.31;5113906;28;19924;-70
2021/08/01 11:11:10;;;;;;;;;;;;;;;26.35;38.55;99458.66;5112764;28;21340;-71
2021/08/01 11:13:38;;;;;;;;;;;;;;;25.71;41.18;99457.88;5113909;28;19924;-71
2021/08/01 11:16:08;;;;;;;;;;;;;;;24.27;44.37;99463.16;5113632;28;19931;-71
2021/08/01 11:18:36;;;;;;;;;;;;;;;24.04;44.65;99468.88;5113586;28;19981;-71
2021/08/01 11:21:04;;;;;;;;;;;;;;;23.41;47.46;99460.38;5113551;28;19928;-71
2021/08/01 11:23:54;;;;;;;;;;;;;;;23.54;48.16;99468.38;5113214;28;19969;-72
2021/08/01 11:26:21;;;;;;;;;;;;;;;22.96;47.13;99467.88;5102677;28;20321;-72
2021/08/01 11:29:04;;;;;;;;;;;;;;;22.66;48.46;99475.25;5113122;28;19923;-72
2021/08/01 11:31:32;;;;;;;;;;;;;;;22.38;48.63;99474.25;5113647;28;19924;-71
2021/08/01 11:34:16;;;;;;;;;;;;;;;21.78;49.18;99478.16;5113031;28;19923;-71
2021/08/01 11:36:43;;;;;;;;;;;;;;;21.49;52.45;99485.16;5112202;28;19923;-71
2021/08/01 11:39:09;;;;;;;;;;;;;;;20.45;56.49;99502.81;5113203;28;20012;-71
2021/08/01 11:41:43;;;;;;;;;;;;;;;20.02;59.20;99513.03;5113500;28;19924;-71
2021/08/01 11:44:14;;;;;;;;;;;;;;;19.61;61.64;99509.78;5113443;28;19931;-71
2021/08/01 11:46:59;;;;;;;;;;;;;;;19.04;65.11;99529.28;5112743;28;20921;-71
2021/08/01 11:49:26;;;;;;;;;;;;;;;18.50;69.69;99530.66;5112336;28;19924;-71
2021/08/01 11:51:54;;;;;;;;;;;;;;;17.94;73.31;99524.34;5112693;28;19930;-71
2021/08/01 11:54:26;;;;;;;;;;;;;;;17.54;75.63;99533.72;5113078;28;19923;-71
2021/08/01 11:56:55;;;;;;;;;;;;;;;16.95;77.70;99533.63;5112714;28;19924;-71
2021/08/01 11:59:22;;;;;;;;;;;;;;;16.61;81.56;99540.59;5112902;28;20405;-71
2021/08/01 12:01:50;;;;;;;;;;;;;;;16.27;83.57;99539.50;5112703;28;19931;-71
2021/08/01 12:04:18;;;;;;;;;;;;;;;16.29;83.97;99537.53;5128155;27;19939;-71
2021/08/01 12:06:45;;;;;;;;;;;;;;;16.03;84.00;99534.00;5133081;28;19935;-71
2021/08/01 12:09:18;;;;;;;;;;;;;;;15.82;86.52;99534.28;5133209;28;20400;-70
2021/08/01 12:11:45;;;;;;;;;;;;;;;15.92;85.62;99524.56;5132873;28;20301;-75
2021/08/01 12:14:12;;;;;;;;;;;;;;;15.93;84.55;99520.97;5133233;28;19923;-75
2021/08/01 12:16:38;;;;;;;;;;;;;;;16.08;83.76;99522.09;5133587;28;19923;-75
2021/08/01 12:19:15;;;;;;;;;;;;;;;16.19;85.29;99521.06;5133016;28;19935;-75
2021/08/01 12:21:43;;;;;;;;;;;;;;;16.32;85.10;99518.03;5133439;28;19949;-75
2021/08/01 12:24:24;;;;;;;;;;;;;;;16.46;82.49;99504.34;5133397;28;19923;-75
2021/08/01 12:26:51;;;;;;;;;;;;;;;16.70;83.17;99505.53;5132885;28;19924;-75
2021/08/01 12:29:27;;;;;;;;;;;;;;;16.78;83.87;99491.66;5133092;28;20297;-76
2021/08/01 12:31:54;;;;;;;;;;;;;;;17.05;84.67;99490.66;5132886;28;20285;-75
2021/08/01 12:34:21;;;;;;;;;;;;;;;17.91;80.42;99490.47;5132972;28;19924;-76
2021/08/01 12:36:49;;;;;;;;;;;;;;;18.38;76.23;99483.75;5134661;27;19978;-76
2021/08/01 12:39:18;;;;;;;;;;;;;;;18.30;78.36;99481.94;5137112;27;19930;-76
2021/08/01 12:41:45;;;;;;;;;;;;;;;18.43;79.17;99490.16;5137157;27;19949;-75
2021/08/01 12:44:12;;;;;;;;;;;;;;;18.45;79.90;99484.72;5136896;27;19931;-75
2021/08/01 12:46:39;;;;;;;;;;;;;;;18.55;80.04;99487.16;5137344;27;19924;-75
2021/08/01 12:49:05;;;;;;;;;;;;;;;18.65;79.63;99480.75;5136679;27;19927;-75
2021/08/01 12:51:32;;;;;;;;;;;;;;;18.80;78.78;99473.00;5136902;27;19924;-75
2021/08/01 12:54:00;;;;;;;;;;;;;;;18.55;79.02;99472.22;5136784;27;19923;-75